Time;durP1;ratioP1;P1;durP2;ratioP2;P2;SDS_P1;SDS_P2;PMS_P1;PMS_P2;Temp;Humidity;BMP_temperature;BMP_pressure;BME280_temperature;BME280_humidity;BME280_pressure;Samples;Min_cycle;Max_cycle;Signal;HPM_P1;HPM_P2
2023/09/29 00:00:18;;;;;;;14.55;8.57;;;;;;;;;;4982447;28;20277;-78
2023/09/29 00:02:44;;;;;;;13.63;8.02;;;;;;;;;;4980620;28;20403;-76
2023/09/29 00:05:10;;;;;;;11.52;7.82;;;;;;;;;;4980830;28;20480;-78
2023/09/29 00:07:35;;;;;;;18.17;7.68;;;;;;;;;;4979698;28;20035;-78
2023/09/29 00:10:01;;;;;;;11.07;7.55;;;;;;;;;;4978967;28;20023;-78
2023/09/29 00:12:26;;;;;;;12.25;7.47;;;;;;;;;;4978674;28;20041;-79
2023/09/29 00:14:52;;;;;;;13.70;7.43;;;;;;;;;;4975592;28;20030;-78
2023/09/29 00:17:17;;;;;;;16.50;7.47;;;;;;;;;;4981681;28;20173;-78
2023/09/29 00:19:42;;;;;;;14.00;8.00;;;;;;;;;;4980260;28;20095;-78
2023/09/29 00:22:09;;;;;;;14.63;7.47;;;;;;;;;;4979058;28;20080;-78
2023/09/29 00:24:34;;;;;;;13.75;7.35;;;;;;;;;;4980619;28;20334;-72
2023/09/29 00:26:59;;;;;;;17.85;7.68;;;;;;;;;;4980217;28;20064;-72
2023/09/29 00:29:25;;;;;;;15.77;7.40;;;;;;;;;;4978900;28;20042;-72
2023/09/29 00:31:50;;;;;;;15.93;7.50;;;;;;;;;;4981387;28;20272;-78
2023/09/29 00:34:15;;;;;;;15.77;7.57;;;;;;;;;;4980133;28;20026;-77
2023/09/29 00:36:42;;;;;;;11.60;7.17;;;;;;;;;;4977863;28;20662;-78
2023/09/29 00:39:10;;;;;;;14.88;7.75;;;;;;;;;;4980037;28;20030;-78
2023/09/29 00:41:37;;;;;;;17.83;7.23;;;;;;;;;;4980422;28;20057;-78
2023/09/29 00:44:02;;;;;;;14.98;7.80;;;;;;;;;;4979085;28;20030;-79
2023/09/29 00:46:29;;;;;;;11.95;7.63;;;;;;;;;;4975883;28;20026;-78
2023/09/29 00:48:55;;;;;;;15.00;7.88;;;;;;;;;;4977036;28;20528;-78
2023/09/29 00:51:21;;;;;;;14.75;7.50;;;;;;;;;;4979633;28;20022;-78
2023/09/29 00:53:47;;;;;;;12.50;7.47;;;;;;;;;;4982239;28;20038;-78
2023/09/29 00:56:12;;;;;;;10.60;7.22;;;;;;;;;;4975577;28;20023;-78
2023/09/29 00:58:39;;;;;;;15.43;7.40;;;;;;;;;;4977460;28;20113;-79
2023/09/29 01:01:06;;;;;;;12.82;7.40;;;;;;;;;;4980177;28;20042;-78
2023/09/29 01:03:32;;;;;;;9.68;6.80;;;;;;;;;;4980039;28;20516;-78
2023/09/29 01:05:58;;;;;;;14.13;7.30;;;;;;;;;;4980953;28;20038;-79
2023/09/29 01:08:23;;;;;;;13.15;7.95;;;;;;;;;;4977080;28;20026;-78
2023/09/29 01:10:49;;;;;;;11.70;7.50;;;;;;;;;;4978488;28;20498;-78
2023/09/29 01:13:15;;;;;;;15.52;7.57;;;;;;;;;;4981607;28;20543;-78
2023/09/29 01:15:40;;;;;;;15.15;7.65;;;;;;;;;;4979115;28;20186;-79
2023/09/29 01:18:06;;;;;;;13.27;7.53;;;;;;;;;;4979992;28;20014;-73
2023/09/29 01:20:32;;;;;;;12.88;7.50;;;;;;;;;;4978377;28;20030;-73
2023/09/29 01:22:58;;;;;;;12.63;7.45;;;;;;;;;;4977545;28;20038;-73
2023/09/29 01:25:23;;;;;;;18.65;7.40;;;;;;;;;;4974699;28;20022;-73
2023/09/29 01:27:49;;;;;;;13.35;7.88;;;;;;;;;;4981029;28;20033;-73
2023/09/29 01:30:16;;;;;;;15.10;7.63;;;;;;;;;;4975663;28;20065;-72
2023/09/29 01:32:43;;;;;;;13.25;8.32;;;;;;;;;;4978865;28;20033;-73
2023/09/29 01:35:10;;;;;;;16.20;7.63;;;;;;;;;;4978962;28;20078;-73
2023/09/29 01:37:36;;;;;;;15.80;8.40;;;;;;;;;;4977549;28;20018;-71
2023/09/29 01:40:01;;;;;;;15.48;7.80;;;;;;;;;;4976419;28;20069;-72
2023/09/29 01:42:26;;;;;;;14.90;8.47;;;;;;;;;;4980387;28;20030;-73
2023/09/29 01:44:51;;;;;;;12.63;8.57;;;;;;;;;;4976771;28;20272;-73
2023/09/29 01:47:17;;;;;;;12.23;7.87;;;;;;;;;;4976355;28;20416;-72
2023/09/29 01:49:43;;;;;;;16.98;8.15;;;;;;;;;;4978310;28;20042;-72
2023/09/29 01:52:08;;;;;;;12.15;7.40;;;;;;;;;;4993281;28;20038;-73
2023/09/29 01:54:33;;;;;;;16.40;7.43;;;;;;;;;;4976746;28;20031;-72
2023/09/29 01:57:01;;;;;;;13.90;8.07;;;;;;;;;;4975785;28;20292;-73
2023/09/29 01:59:27;;;;;;;10.15;7.53;;;;;;;;;;4977850;28;20276;-73
2023/09/29 02:01:53;;;;;;;11.43;7.75;;;;;;;;;;4976352;28;20030;-73
2023/09/29 02:04:18;;;;;;;12.13;7.88;;;;;;;;;;4977522;28;20026;-72
2023/09/29 02:06:43;;;;;;;13.07;7.90;;;;;;;;;;4978114;28;20018;-73
2023/09/29 02:09:10;;;;;;;13.47;7.67;;;;;;;;;;4978042;28;20027;-72
2023/09/29 02:11:39;;;;;;;13.20;7.78;;;;;;;13.45;nan;101051.88;4977962;28;20284;-72
2023/09/29 02:14:05;;;;;;;12.43;7.30;;;;;;;;;;4976298;28;20587;-73
2023/09/29 02:16:30;;;;;;;12.02;6.90;;;;;;;;;;4977070;28;20051;-73
2023/09/29 02:18:56;;;;;;;12.13;7.47;;;;;;;;;;4978200;28;20097;-73
2023/09/29 02:21:22;;;;;;;10.43;7.05;;;;;;;;;;4977038;28;20076;-73
2023/09/29 02:23:48;;;;;;;12.38;8.30;;;;;;;;;;4975861;28;20137;-72
2023/09/29 02:26:13;;;;;;;13.00;7.60;;;;;;;;;;4975287;28;20495;-73
2023/09/29 02:28:38;;;;;;;13.13;7.40;;;;;;;;;;4976540;28;20391;-73
2023/09/29 02:31:04;;;;;;;10.83;7.30;;;;;;;;;;4978967;28;20037;-73
2023/09/29 02:33:31;;;;;;;13.37;7.30;;;;;;;;;;4980293;28;20488;-78
2023/09/29 02:35:56;;;;;;;10.75;7.25;;;;;;;;;;4974154;28;20272;-78
2023/09/29 02:38:22;;;;;;;13.50;7.15;;;;;;;;;;4975168;28;20021;-78
2023/09/29 02:40:47;;;;;;;14.52;7.72;;;;;;;;;;4976565;28;20108;-79
2023/09/29 02:43:12;;;;;;;13.50;7.63;;;;;;;;;;4976887;28;20034;-78
2023/09/29 02:45:40;;;;;;;12.20;7.40;;;;;;;;;;4978293;28;20042;-76
2023/09/29 02:48:05;;;;;;;11.15;7.25;;;;;;;;;;4984357;28;20064;-78
2023/09/29 02:50:32;;;;;;;12.25;7.22;;;;;;;;;;4977694;28;20058;-78
2023/09/29 02:52:57;;;;;;;12.05;7.57;;;;;;;;;;4976007;28;20039;-78
2023/09/29 02:55:23;;;;;;;13.33;7.37;;;;;;;;;;4980747;28;20034;-78
2023/09/29 02:57:48;;;;;;;10.73;7.80;;;;;;;;;;4974060;28;20279;-79
2023/09/29 03:00:26;;;;;;;12.53;7.87;;;;;;;;;;4981299;28;20037;-76
2023/09/29 03:02:52;;;;;;;19.57;7.90;;;;;;;;;;4977475;28;20030;-78
2023/09/29 03:05:18;;;;;;;12.63;8.03;;;;;;;;;;4979424;28;20487;-78
2023/09/29 03:07:43;;;;;;;17.33;7.95;;;;;;;;;;4980088;28;20296;-77
2023/09/29 03:10:11;;;;;;;18.70;7.63;;;;;;;;;;4977765;28;20019;-78
2023/09/29 03:12:37;;;;;;;13.13;7.57;;;;;;;;;;4979927;28;20045;-78
2023/09/29 03:15:03;;;;;;;10.37;7.80;;;;;;;;;;4978098;28;20477;-78
2023/09/29 03:17:30;;;;;;;15.65;8.05;;;;;;;;;;4979730;28;20018;-78
2023/09/29 03:19:55;;;;;;;10.88;6.97;;;;;;;;;;4982603;28;20034;-79
2023/09/29 03:22:20;;;;;;;11.93;7.27;;;;;;;;;;4980047;28;20026;-78
2023/09/29 03:24:46;;;;;;;17.87;6.93;;;;;;;;;;4978907;28;20327;-78
2023/09/29 03:27:11;;;;;;;14.77;7.90;;;;;;;;;;4987956;28;20037;-78
2023/09/29 03:29:36;;;;;;;14.87;7.27;;;;;;;;;;4977335;28;20303;-78
2023/09/29 03:32:01;;;;;;;12.87;8.23;;;;;;;;;;4979162;28;20038;-78
2023/09/29 03:34:27;;;;;;;12.82;7.22;;;;;;;;;;4981524;28;20030;-79
2023/09/29 03:36:52;;;;;;;10.87;7.03;;;;;;;;;;4980244;28;20023;-79
2023/09/29 03:39:18;;;;;;;15.18;7.50;;;;;;;;;;4978907;28;20046;-77
2023/09/29 03:41:43;;;;;;;15.05;7.43;;;;;;;;;;4981332;28;20043;-79
2023/09/29 03:44:12;;;;;;;14.67;7.30;;;;;;;;;;4995802;28;20030;-78
2023/09/29 03:46:38;;;;;;;15.68;8.10;;;;;;;;;;4982835;28;20033;-79
2023/09/29 03:49:03;;;;;;;18.23;8.10;;;;;;;;;;4979863;28;20058;-78
2023/09/29 03:51:30;;;;;;;15.33;7.57;;;;;;;;;;4979656;28;20504;-79
2023/09/29 03:53:55;;;;;;;14.65;7.95;;;;;;;;;;4979279;28;20133;-78
2023/09/29 03:56:23;;;;;;;14.75;7.57;;;;;;;;;;4980026;28;20117;-79
2023/09/29 03:58:49;;;;;;;14.48;7.45;;;;;;;;;;4978575;28;20054;-79
2023/09/29 04:01:15;;;;;;;14.60;7.97;;;;;;;;;;4980106;28;20586;-78
2023/09/29 04:03:40;;;;;;;14.82;8.02;;;;;;;;;;4981573;28;20030;-78
2023/09/29 04:06:06;;;;;;;11.27;7.35;;;;;;;;;;4982347;28;20030;-79
2023/09/29 04:08:31;;;;;;;16.77;8.25;;;;;;;;;;4979854;28;20018;-79
2023/09/29 04:10:56;;;;;;;17.40;8.57;;;;;;;;;;4981105;28;20030;-79
2023/09/29 04:13:21;;;;;;;17.80;8.47;;;;;;;;;;4980221;28;20030;-79
2023/09/29 04:15:47;;;;;;;17.48;7.80;;;;;;;;;;4980243;28;20304;-78
2023/09/29 04:18:12;;;;;;;17.43;7.83;;;;;;;;;;4979269;28;20050;-79
2023/09/29 04:20:37;;;;;;;21.27;7.83;;;;;;;;;;4983341;28;20081;-79
2023/09/29 04:23:05;;;;;;;16.30;8.03;;;;;;;;;;4977020;28;20280;-79
2023/09/29 04:25:31;;;;;;;13.30;8.88;;;;;;;;;;4979088;28;20509;-79
2023/09/29 04:27:57;;;;;;;18.55;7.88;;;;;;;;;;4979781;28;20038;-79
2023/09/29 04:30:22;;;;;;;15.20;8.10;;;;;;;;;;4980731;28;20891;-78
2023/09/29 04:32:47;;;;;;;19.13;8.63;;;;;;;;;;4980533;28;20532;-78
2023/09/29 04:35:13;;;;;;;16.02;8.07;;;;;;;;;;4978914;28;20315;-78
2023/09/29 04:37:38;;;;;;;20.90;7.97;;;;;;;;;;4984832;28;20425;-80
2023/09/29 04:40:04;;;;;;;23.67;8.30;;;;;;;;;;4981813;28;20050;-81
2023/09/29 04:42:29;;;;;;;18.55;8.50;;;;;;;;;;4979774;28;20033;-78
2023/09/29 04:44:54;;;;;;;19.25;8.60;;;;;;;;;;4980600;28;20030;-82
2023/09/29 04:47:20;;;;;;;20.50;8.13;;;;;;;;;;4981563;28;20026;-82
2023/09/29 04:49:45;;;;;;;17.90;8.60;;;;;;;;;;4989151;28;21067;-78
2023/09/29 04:52:10;;;;;;;18.50;8.63;;;;;;;;;;4979466;28;20032;-78
2023/09/29 04:54:35;;;;;;;22.45;9.02;;;;;;;;;;4981703;28;20607;-77
2023/09/29 04:57:01;;;;;;;20.47;9.47;;;;;;;;;;4980313;28;20388;-79
2023/09/29 04:59:26;;;;;;;13.87;8.70;;;;;;;;;;4978292;28;20031;-78
2023/09/29 05:01:51;;;;;;;13.50;8.43;;;;;;;;;;4977712;28;20339;-75
2023/09/29 05:04:16;;;;;;;15.33;8.00;;;;;;;;;;4980659;28;20815;-77
2023/09/29 05:06:43;;;;;;;14.53;7.57;;;;;;;;;;4978827;28;20022;-74
2023/09/29 05:09:11;;;;;;;14.10;7.88;;;;;;;;;;4978767;28;20488;-76
2023/09/29 05:11:36;;;;;;;16.40;8.07;;;;;;;;;;4979509;28;20519;-78
2023/09/29 05:14:02;;;;;;;20.55;9.40;;;;;;;;;;4985637;28;20302;-80
2023/09/29 05:16:27;;;;;;;31.02;10.85;;;;;;;;;;4978190;28;20130;-79
2023/09/29 05:18:53;;;;;;;15.60;8.07;;;;;;;;;;4982728;28;20034;-79
2023/09/29 05:21:20;;;;;;;15.73;8.45;;;;;;;;;;4981420;28;20026;-79
2023/09/29 05:23:45;;;;;;;23.02;9.95;;;;;;;;;;4979935;28;20031;-78
2023/09/29 05:26:11;;;;;;;18.27;8.15;;;;;;;;;;4977288;28;20054;-80
2023/09/29 05:28:37;;;;;;;15.63;8.50;;;;;;;;;;4981538;28;20034;-79
2023/09/29 05:31:03;;;;;;;15.93;8.55;;;;;;;;;;4984232;28;20118;-79
2023/09/29 05:33:29;;;;;;;22.65;8.95;;;;;;;;;;4980284;28;20050;-78
2023/09/29 05:35:55;;;;;;;16.98;9.13;;;;;;;;;;4996164;28;20092;-80
2023/09/29 05:38:21;;;;;;;21.55;9.35;;;;;;;;;;4982284;28;20034;-78
2023/09/29 05:40:48;;;;;;;21.67;9.65;;;;;;;;;;4981641;28;20032;-78
2023/09/29 05:43:15;;;;;;;20.48;9.57;;;;;;;;;;4982180;28;20064;-77
2023/09/29 05:45:41;;;;;;;16.05;9.15;;;;;;;;;;4983894;28;20026;-78
2023/09/29 05:48:06;;;;;;;17.08;8.68;;;;;;;;;;4986836;28;20041;-79
2023/09/29 05:50:31;;;;;;;16.77;8.80;;;;;;;;;;4979772;28;20031;-79
2023/09/29 05:52:57;;;;;;;18.27;8.48;;;;;;;;;;4979973;28;20468;-78
2023/09/29 05:55:23;;;;;;;22.98;9.10;;;;;;;;;;4980325;28;20512;-79
2023/09/29 05:57:49;;;;;;;21.35;9.15;;;;;;;;;;4979231;28;20064;-78
2023/09/29 06:00:15;;;;;;;16.25;8.27;;;;;;;;;;4976351;28;20125;-78
2023/09/29 06:02:40;;;;;;;16.88;8.40;;;;;;;;;;4983890;28;20026;-78
2023/09/29 06:05:06;;;;;;;13.37;8.33;;;;;;;;;;4978211;28;20026;-77
2023/09/29 06:07:32;;;;;;;16.23;7.97;;;;;;;;;;4982182;28;20288;-78
2023/09/29 06:09:57;;;;;;;13.52;8.30;;;;;;;;;;4980828;28;20034;-78
2023/09/29 06:12:22;;;;;;;13.63;8.43;;;;;;;;;;4980253;28;20480;-80
2023/09/29 06:14:48;;;;;;;25.57;8.80;;;;;;;;;;4977475;28;20035;-78
2023/09/29 06:17:13;;;;;;;16.05;8.32;;;;;;;;;;4979066;28;20038;-78
2023/09/29 06:19:38;;;;;;;13.73;8.73;;;;;;;;;;4976529;28;20564;-79
2023/09/29 06:22:04;;;;;;;17.17;8.20;;;;;;;;;;4980140;28;20054;-77
2023/09/29 06:24:29;;;;;;;17.05;8.45;;;;;;;;;;4977190;28;20092;-78
2023/09/29 06:26:55;;;;;;;15.15;8.23;;;;;;;;;;4980015;28;20492;-79
2023/09/29 06:29:20;;;;;;;22.77;8.20;;;;;;;;;;4980382;28;20049;-78
2023/09/29 06:31:46;;;;;;;17.73;7.67;;;;;;;;;;4978457;28;20109;-78
2023/09/29 06:34:11;;;;;;;13.27;8.27;;;;;;;;;;4975904;28;20081;-78
2023/09/29 06:36:36;;;;;;;15.65;8.45;;;;;;;14.68;nan;101121.66;4980266;28;20580;-79
2023/09/29 06:39:02;;;;;;;16.48;8.60;;;;;;;;;;4979421;28;20030;-74
2023/09/29 06:41:27;;;;;;;13.57;7.90;;;;;;;;;;4978430;28;20046;-79
2023/09/29 06:43:53;;;;;;;16.00;7.50;;;;;;;;;;4993474;28;20596;-77
2023/09/29 06:46:18;;;;;;;11.45;8.18;;;;;;;;;;4985168;28;20099;-73
2023/09/29 06:48:44;;;;;;;12.95;7.28;;;;;;;;;;4982326;28;20084;-73
2023/09/29 06:51:09;;;;;;;14.68;7.68;;;;;;;;;;4979611;28;20033;-74
2023/09/29 06:53:34;;;;;;;14.00;7.33;;;;;;;;;;4981066;28;20210;-73
2023/09/29 06:56:00;;;;;;;12.60;7.03;;;;;;;;;;4981903;28;20113;-73
2023/09/29 06:58:25;;;;;;;15.70;6.87;;;;;;;;;;4979160;28;20659;-74
2023/09/29 07:00:51;;;;;;;11.25;7.10;;;;;;;;;;4982176;28;20280;-73
2023/09/29 07:03:17;;;;;;;17.05;7.53;;;;;;;;;;4979175;28;20026;-73
2023/09/29 07:05:42;;;;;;;13.65;6.82;;;;;;;;;;4982476;28;20046;-73
2023/09/29 07:08:07;;;;;;;11.63;6.90;;;;;;;;;;4979713;28;20480;-73
2023/09/29 07:10:33;;;;;;;11.97;7.10;;;;;;;;;;4980256;28;20052;-73
2023/09/29 07:12:58;;;;;;;13.85;7.10;;;;;;;;;;4981595;28;20279;-73
2023/09/29 07:15:24;;;;;;;11.77;7.20;;;;;;;16.11;nan;101157.06;4944334;28;1170956;-72
2023/09/29 07:17:49;;;;;;;18.88;7.18;;;;;;;;;;4980594;28;20495;-72
2023/09/29 07:20:14;;;;;;;15.13;7.17;;;;;;;;;;4982257;28;20032;-73
2023/09/29 07:22:40;;;;;;;12.98;6.65;;;;;;;;;;4982367;28;20038;-73
2023/09/29 07:25:06;;;;;;;16.05;6.55;;;;;;;;;;4984416;28;20034;-73
2023/09/29 07:27:31;;;;;;;17.77;6.78;;;;;;;;;;4985254;28;20384;-73
2023/09/29 07:29:57;;;;;;;13.90;6.90;;;;;;;16.54;nan;101140.44;4982955;28;20139;-70
2023/09/29 07:32:23;;;;;;;16.30;7.43;;;;;;;;;;4987183;28;20030;-72
2023/09/29 07:34:49;;;;;;;14.52;7.47;;;;;;;;;;4984423;28;20027;-70
2023/09/29 07:37:14;;;;;;;14.50;6.78;;;;;;;;;;4972421;28;20322;-71
2023/09/29 07:39:39;;;;;;;13.13;6.82;;;;;;;;;;4981807;28;20031;-70
2023/09/29 07:42:05;;;;;;;12.02;6.75;;;;;;;;;;4983775;28;20109;-71
2023/09/29 07:44:31;;;;;;;13.82;5.97;;;;;;;;;;4984839;28;20506;-70
2023/09/29 07:46:57;;;;;;;17.17;6.30;;;;;;;;;;4982479;28;20038;-70
2023/09/29 07:49:24;;;;;;;13.70;6.37;;;;;;;;;;4983809;28;20409;-71
2023/09/29 07:51:49;;;;;;;11.48;6.20;;;;;;;;;;4978337;28;20061;-71
2023/09/29 07:54:16;;;;;;;10.90;6.47;;;;;;;;;;4979102;28;20090;-71
2023/09/29 07:56:41;;;;;;;11.13;6.35;;;;;;;;;;4978519;28;20026;-71
2023/09/29 07:59:07;;;;;;;15.80;5.78;;;;;;;;;;4984528;28;20026;-70
2023/09/29 08:01:32;;;;;;;16.97;6.13;;;;;;;;;;4980295;28;20250;-70
2023/09/29 08:03:57;;;;;;;14.02;5.78;;;;;;;;;;4979644;28;20280;-69
2023/09/29 08:06:24;;;;;;;16.63;6.07;;;;;;;;;;4980782;28;20033;-69
2023/09/29 08:08:49;;;;;;;12.25;5.97;;;;;;;;;;4984239;28;20291;-70
2023/09/29 08:11:15;;;;;;;14.13;6.45;;;;;;;18.34;nan;101123.44;4981259;28;20030;-69
2023/09/29 08:13:40;;;;;;;16.13;5.90;;;;;;;;;;4980356;28;20030;-71
2023/09/29 08:16:06;;;;;;;23.27;6.87;;;;;;;;;;4981166;28;20113;-71
2023/09/29 08:18:31;;;;;;;14.77;5.97;;;;;;;;;;4981289;28;20106;-70
2023/09/29 08:20:57;;;;;;;11.30;6.20;;;;;;;;;;4981643;28;20099;-70
2023/09/29 08:23:22;;;;;;;11.87;5.93;;;;;;;;;;4981106;28;20023;-71
2023/09/29 08:25:48;;;;;;;10.27;5.20;;;;;;;;;;4982677;28;20306;-71
2023/09/29 08:28:13;;;;;;;12.98;5.55;;;;;;;;;;4983874;28;20025;-71
2023/09/29 08:30:41;;;;;;;16.40;5.80;;;;;;;;;;4981422;28;20080;-71
2023/09/29 08:33:07;;;;;;;10.82;5.47;;;;;;;;;;4981817;28;20022;-70
2023/09/29 08:35:32;;;;;;;15.17;5.33;;;;;;;;;;4980119;28;20041;-71
2023/09/29 08:37:58;;;;;;;14.30;5.13;;;;;;;19.18;nan;101121.63;4980583;28;20264;-71
2023/09/29 08:40:24;;;;;;;14.00;5.63;;;;;;;19.26;nan;101107.78;4978708;28;20371;-70
2023/09/29 08:42:50;;;;;;;15.55;5.50;;;;;;;19.32;nan;101122.72;4986684;28;20057;-70
2023/09/29 08:45:17;;;;;;;21.50;5.22;;;;;;;19.38;nan;101153.72;4980197;28;20034;-70
2023/09/29 08:47:49;;;;;;;12.70;4.68;;;;;;;19.46;nan;101121.13;4994489;28;20029;-70
2023/09/29 08:50:16;;;;;;;13.05;5.07;;;;;;;19.53;nan;101123.53;4980466;28;20562;-75
2023/09/29 08:52:44;;;;;;;10.75;5.00;;;;;;;;;;4982687;28;20057;-75
2023/09/29 08:55:12;;;;;;;12.13;4.67;;;;;;;19.68;nan;101147.63;4980880;28;20093;-74
2023/09/29 08:57:37;;;;;;;13.75;5.32;;;;;;;;;;4979414;28;20444;-74
2023/09/29 09:00:04;;;;;;;12.73;5.53;;;;;;;19.97;nan;101101.63;4980935;28;20030;-70
2023/09/29 09:02:30;;;;;;;16.40;5.20;;;;;;;20.07;nan;101104.28;4979480;28;20080;-69
2023/09/29 09:04:56;;;;;;;12.30;4.97;;;;;;;20.14;nan;101077.25;4979379;28;20018;-73
2023/09/29 09:07:23;;;;;;;13.93;4.88;;;;;;;20.24;nan;101095.94;4975395;28;20029;-74
2023/09/29 09:09:50;;;;;;;13.85;4.60;;;;;;;20.39;nan;101119.94;4983978;28;20088;-76
2023/09/29 09:12:17;;;;;;;12.25;5.25;;;;;;;20.52;nan;101099.84;4979486;28;20022;-75
2023/09/29 09:14:44;;;;;;;9.07;5.40;;;;;;;20.67;nan;101092.84;4979442;28;20120;-75
2023/09/29 09:17:10;;;;;;;13.13;5.15;;;;;;;20.82;nan;101154.34;4979739;28;20129;-74
2023/09/29 09:19:50;;;;;;;20.52;5.05;;;;;;;20.95;nan;101094.84;4973807;28;20039;-75
2023/09/29 09:22:25;;;;;;;12.02;5.20;;;;;;;21.05;nan;101112.72;4978279;28;20093;-75
2023/09/29 09:24:57;;;;;;;15.23;4.90;;;;;;;21.15;nan;101106.50;4980176;28;20454;-75
2023/09/29 09:27:23;;;;;;;10.57;4.70;;;;;;;21.19;nan;101107.53;4979536;28;20110;-74
2023/09/29 09:29:48;;;;;;;11.43;5.00;;;;;;;21.34;nan;101102.06;4977461;28;20151;-73
2023/09/29 09:32:14;;;;;;;11.05;5.15;;;;;;;21.38;nan;101059.41;4980097;28;20030;-75
2023/09/29 09:34:41;;;;;;;12.40;5.22;;;;;;;21.51;nan;101101.69;4980496;28;20034;-75
2023/09/29 09:37:08;;;;;;;10.90;4.63;;;;;;;21.50;nan;101085.88;4979995;28;20068;-76
2023/09/29 09:39:34;;;;;;;11.07;4.55;;;;;;;21.69;nan;101099.38;4976418;28;20034;-70
2023/09/29 09:42:03;;;;;;;17.67;4.50;;;;;;;21.73;nan;101082.47;4978075;28;20073;-71
2023/09/29 09:44:28;;;;;;;14.07;4.53;;;;;;;21.82;nan;101088.81;4977860;28;20022;-70
2023/09/29 09:47:03;;;;;;;10.32;4.78;;;;;;;21.88;nan;101092.22;4975505;28;20089;-70
2023/09/29 09:49:41;;;;;;;11.00;4.50;;;;;;;21.98;nan;101051.91;4984734;28;20558;-70
2023/09/29 09:52:08;;;;;;;13.18;4.50;;;;;;;22.01;nan;101122.97;4979592;28;20054;-75
2023/09/29 09:54:48;;;;;;;13.75;4.75;;;;;;;22.09;nan;101074.84;4981302;28;20036;-77
2023/09/29 09:57:20;;;;;;;9.88;4.20;;;;;;;22.18;nan;101098.38;4978628;28;20138;-75
2023/09/29 09:59:47;;;;;;;10.68;4.55;;;;;;;22.32;nan;101158.34;4977038;28;20036;-72
2023/09/29 10:02:13;;;;;;;11.65;4.40;;;;;;;22.35;nan;101057.69;4980183;28;20038;-73
2023/09/29 10:04:39;;;;;;;14.60;5.20;;;;;;;22.48;nan;101079.25;4976579;28;20393;-75
2023/09/29 10:07:06;;;;;;;18.13;4.93;;;;;;;22.60;nan;101096.78;4977529;28;20034;-74
2023/09/29 10:09:43;;;;;;;17.33;4.45;;;;;;;22.65;nan;101163.84;4981504;28;20084;-74
2023/09/29 10:12:20;;;;;;;10.88;4.28;;;;;;;22.57;nan;101049.84;4979297;28;20050;-74
2023/09/29 10:14:47;;;;;;;14.80;5.28;;;;;;;22.66;nan;101066.91;4982798;28;20106;-75
2023/09/29 10:17:13;;;;;;;12.25;4.88;;;;;;;22.64;nan;101146.94;4996344;28;20069;-72
2023/09/29 10:19:39;;;;;;;10.57;4.40;;;;;;;22.85;nan;101068.81;4990612;28;20058;-71
2023/09/29 10:22:06;;;;;;;19.33;4.53;;;;;;;22.99;nan;101149.50;4979812;28;20026;-71
2023/09/29 10:24:31;;;;;;;16.90;4.20;;;;;;;23.13;nan;101081.31;4978164;28;20030;-72
2023/09/29 10:27:04;;;;;;;7.15;4.25;;;;;;;23.20;nan;101085.50;4975216;28;20503;-72
2023/09/29 10:29:33;;;;;;;14.93;4.43;;;;;;;23.36;nan;101087.63;4984237;28;20118;-72
2023/09/29 10:32:10;;;;;;;;;;;;;;;23.45;nan;101085.09;4984594;28;20033;-72
2023/09/29 10:34:36;;;;;;;18.45;4.53;;;;;;;23.50;nan;101078.84;4977391;28;19914;-71
2023/09/29 10:37:02;;;;;;;13.73;4.30;;;;;;;23.53;nan;101079.03;4978750;28;20436;-71
2023/09/29 10:39:29;;;;;;;18.00;4.53;;;;;;;23.71;nan;101081.97;4976158;28;20010;-73
2023/09/29 10:41:58;;;;;;;10.45;4.18;;;;;;;23.89;nan;101061.47;4975896;28;20023;-73
2023/09/29 10:44:28;;;;;;;14.68;4.50;;;;;;;23.99;nan;101110.53;4975578;28;20118;-72
2023/09/29 10:46:53;;;;;;;10.40;4.07;;;;;;;24.05;nan;101159.63;4981944;28;20036;-71
2023/09/29 10:49:19;;;;;;;17.23;4.43;;;;;;;24.18;nan;101098.84;4979480;28;20039;-73
2023/09/29 10:51:46;;;;;;;13.55;4.28;;;;;;;24.33;nan;101063.56;4976498;28;20737;-71
2023/09/29 10:54:11;;;;;;;9.38;4.00;;;;;;;24.46;nan;101050.38;4991789;28;20037;-71
2023/09/29 10:56:37;;;;;;;10.90;4.32;;;;;;;24.53;nan;101059.66;4978527;28;20035;-72
2023/09/29 10:59:08;;;;;;;7.75;3.70;;;;;;;24.65;nan;101059.13;4976035;28;20030;-68
2023/09/29 11:01:34;;;;;;;10.73;4.47;;;;;;;24.74;nan;101053.84;4977232;28;20096;-68
2023/09/29 11:04:07;;;;;;;10.98;3.70;;;;;;;24.81;nan;101029.97;4977164;28;20030;-68
2023/09/29 11:06:46;;;;;;;11.02;4.40;;;;;;;24.92;nan;101054.75;4974311;28;20979;-68
2023/09/29 11:09:28;;;;;;;;;;;;;;;25.01;nan;101055.63;4996093;28;20030;-68
2023/09/29 11:11:53;;;;;;;10.35;4.05;;;;;;;25.10;nan;101034.13;4976482;28;20049;-68
2023/09/29 11:14:19;;;;;;;9.38;4.00;;;;;;;25.19;nan;101037.72;4981471;28;20554;-72
2023/09/29 11:16:55;;;;;;;11.50;4.22;;;;;;;25.27;nan;101030.78;4976522;28;20052;-71
2023/09/29 11:19:20;;;;;;;9.75;4.18;;;;;;;25.36;nan;101045.88;4976107;28;20031;-71
2023/09/29 11:21:46;;;;;;;9.00;4.32;;;;;;;25.41;nan;101024.19;4980778;28;20544;-73
2023/09/29 11:24:13;;;;;;;14.60;4.45;;;;;;;25.57;nan;101046.16;4981623;28;20038;-72
2023/09/29 11:26:46;;;;;;;9.77;4.38;;;;;;;25.65;nan;101026.50;4978350;28;20519;-72
2023/09/29 11:29:22;;;;;;;13.65;5.05;;;;;;;25.75;nan;101038.13;4984586;28;20041;-71
2023/09/29 11:31:47;;;;;;;10.50;4.22;;;;;;;25.77;nan;101033.22;4980946;28;20053;-71
2023/09/29 11:34:15;;;;;;;10.32;4.55;;;;;;;25.85;nan;101006.25;4984106;28;20026;-71
2023/09/29 11:36:43;;;;;;;11.20;4.10;;;;;;;25.92;nan;101016.63;4983778;28;20077;-72
2023/09/29 11:39:09;;;;;;;11.52;4.50;;;;;;;25.98;nan;100998.38;4987519;28;20022;-72
2023/09/29 11:41:34;;;;;;;19.08;4.65;;;;;;;26.01;nan;101076.03;4982566;28;20057;-70
2023/09/29 11:43:59;;;;;;;9.90;4.18;;;;;;;26.14;nan;101013.03;4982309;28;20034;-71
2023/09/29 11:46:25;;;;;;;7.75;4.50;;;;;;;;;;4984802;28;20117;-72
2023/09/29 11:48:50;;;;;;;9.77;4.23;;;;;;;26.21;nan;100994.44;4982721;28;20121;-72
2023/09/29 11:51:17;;;;;;;7.85;4.00;;;;;;;26.20;nan;100990.19;4985992;28;20817;-72
2023/09/29 11:53:43;;;;;;;8.30;3.80;;;;;;;26.21;nan;100986.34;4983360;28;20448;-71
2023/09/29 11:56:09;;;;;;;8.25;4.10;;;;;;;26.15;nan;100984.16;4981833;28;20038;-71
2023/09/29 11:58:35;;;;;;;8.98;4.38;;;;;;;26.18;nan;100997.00;4983459;28;20085;-71
2023/09/29 12:01:02;;;;;;;8.07;3.70;;;;;;;26.24;nan;100988.44;4982693;28;20061;-71
2023/09/29 12:03:27;;;;;;;9.63;3.83;;;;;;;26.31;nan;101001.44;4982065;28;20045;-71
2023/09/29 12:05:53;;;;;;;8.88;4.00;;;;;;;26.32;nan;100992.25;4995386;28;20053;-70
2023/09/29 12:08:19;;;;;;;11.07;3.90;;;;;;;;;;4981819;28;20053;-73
2023/09/29 12:10:45;;;;;;;9.32;3.45;;;;;;;26.38;nan;100961.25;4982406;28;20038;-72
2023/09/29 12:13:13;;;;;;;7.30;3.90;;;;;;;26.49;nan;100989.56;4980530;28;20026;-71
2023/09/29 12:15:40;;;;;;;7.50;3.67;;;;;;;26.54;nan;101066.16;4979867;28;20500;-72
2023/09/29 12:18:06;;;;;;;9.95;4.50;;;;;;;26.55;nan;101030.72;4996989;28;20026;-70
2023/09/29 12:20:31;;;;;;;8.32;3.25;;;;;;;26.39;nan;101022.28;4984917;28;20018;-66
2023/09/29 12:23:00;;;;;;;7.55;3.80;;;;;;;26.33;nan;100984.94;4980790;28;20116;-67
2023/09/29 12:25:26;;;;;;;11.15;3.78;;;;;;;26.35;nan;100982.72;4981530;28;20187;-67
2023/09/29 12:27:52;;;;;;;8.70;3.67;;;;;;;26.35;nan;100983.50;4981859;28;20042;-66
2023/09/29 12:30:18;;;;;;;9.98;4.68;;;;;;;26.37;nan;100983.22;4982565;28;20034;-66
2023/09/29 12:32:45;;;;;;;6.72;3.83;;;;;;;26.40;nan;100986.06;4982039;28;20089;-66
2023/09/29 12:35:14;;;;;;;12.30;5.10;;;;;;;26.46;nan;100976.69;4981063;28;20023;-67
2023/09/29 12:37:44;;;;;;;13.30;4.10;;;;;;;26.50;nan;100991.13;4979723;28;20431;-67
2023/09/29 12:40:11;;;;;;;7.68;3.65;;;;;;;26.49;nan;100967.94;4981703;28;20125;-67
2023/09/29 12:42:40;;;;;;;10.45;4.18;;;;;;;26.51;nan;100970.34;4979300;28;20500;-66
2023/09/29 12:45:10;;;;;;;6.03;3.47;;;;;;;26.58;nan;100969.88;4982815;28;20488;-67
2023/09/29 12:47:36;;;;;;;7.10;4.35;;;;;;;26.62;nan;100978.94;4978261;28;20026;-66
2023/09/29 12:50:02;;;;;;;10.85;3.58;;;;;;;26.62;nan;100951.91;4981761;28;20045;-67
2023/09/29 12:52:27;;;;;;;9.20;3.90;;;;;;;26.59;nan;100947.16;4983997;28;20441;-69
2023/09/29 12:54:56;;;;;;;10.20;4.25;;;;;;;26.63;nan;100965.13;4977649;28;20037;-67
2023/09/29 12:57:21;;;;;;;8.13;4.15;;;;;;;26.58;nan;100943.66;4981446;28;20053;-68
2023/09/29 12:59:47;;;;;;;8.95;3.90;;;;;;;26.55;nan;100940.81;4978695;28;20489;-68
2023/09/29 13:02:12;;;;;;;11.40;4.63;;;;;;;26.47;nan;100909.97;4984617;28;20396;-67
2023/09/29 13:04:38;;;;;;;10.40;4.40;;;;;;;26.35;nan;100959.22;4985038;28;20027;-67
2023/09/29 13:07:08;;;;;;;6.10;3.95;;;;;;;26.28;nan;100927.28;4984810;28;20037;-66
2023/09/29 13:09:34;;;;;;;8.02;4.07;;;;;;;26.38;nan;100963.97;4981054;28;20054;-66
2023/09/29 13:11:59;;;;;;;8.00;4.05;;;;;;;;;;4975984;28;20069;-69
2023/09/29 13:14:25;;;;;;;9.40;3.53;;;;;;;26.44;nan;100937.63;4975642;28;20038;-69